sensor_id;sensor_type;location;lat;lon;timestamp;pressure;altitude;pressure_sealevel;temperature;humidity
76156;BME280;64906;51.290;7.348;2024-03-08T00:01:09;98859.06;;;10.69;55.71
76156;BME280;64906;51.290;7.348;2024-03-08T00:03:34;98856.97;;;10.71;55.76
76156;BME280;64906;51.290;7.348;2024-03-08T00:05:59;98860.50;;;10.72;55.69
76156;BME280;64906;51.290;7.348;2024-03-08T00:08:25;98859.56;;;10.78;55.50
76156;BME280;64906;51.290;7.348;2024-03-08T00:10:50;98858.50;;;10.79;55.36
76156;BME280;64906;51.290;7.348;2024-03-08T00:13:15;98858.50;;;10.79;55.42
76156;BME280;64906;51.290;7.348;2024-03-08T00:15:41;98857.91;;;10.77;55.52
76156;BME280;64906;51.290;7.348;2024-03-08T00:18:06;98855.19;;;10.77;55.54
76156;BME280;64906;51.290;7.348;2024-03-08T00:20:31;98855.19;;;10.77;55.61
76156;BME280;64906;51.290;7.348;2024-03-08T00:22:57;98850.63;;;10.77;55.43
76156;BME280;64906;51.290;7.348;2024-03-08T00:25:23;98848.41;;;10.74;55.45
76156;BME280;64906;51.290;7.348;2024-03-08T00:27:48;98850.25;;;10.74;55.59
76156;BME280;64906;51.290;7.348;2024-03-08T00:30:14;98839.84;;;10.77;55.23
76156;BME280;64906;51.290;7.348;2024-03-08T00:32:40;98840.44;;;10.79;55.25
76156;BME280;64906;51.290;7.348;2024-03-08T00:35:05;98833.03;;;10.75;55.32
76156;BME280;64906;51.290;7.348;2024-03-08T00:37:33;98837.13;;;10.77;55.51
76156;BME280;64906;51.290;7.348;2024-03-08T00:40:01;98837.09;;;10.66;55.62
76156;BME280;64906;51.290;7.348;2024-03-08T00:42:26;98836.03;;;10.67;55.62
76156;BME280;64906;51.290;7.348;2024-03-08T00:44:52;98839.56;;;10.67;55.56
76156;BME280;64906;51.290;7.348;2024-03-08T00:47:17;98832.88;;;10.70;55.57
76156;BME280;64906;51.290;7.348;2024-03-08T00:49:42;98831.91;;;10.64;55.71
76156;BME280;64906;51.290;7.348;2024-03-08T00:52:08;98826.28;;;10.66;55.64
76156;BME280;64906;51.290;7.348;2024-03-08T00:54:34;98826.16;;;10.61;55.68
76156;BME280;64906;51.290;7.348;2024-03-08T00:57:01;98823.81;;;10.64;55.64
76156;BME280;64906;51.290;7.348;2024-03-08T00:59:28;98821.94;;;10.65;55.60
76156;BME280;64906;51.290;7.348;2024-03-08T01:01:53;98813.00;;;10.64;55.53
76156;BME280;64906;51.290;7.348;2024-03-08T01:04:18;98812.41;;;10.62;55.66
76156;BME280;64906;51.290;7.348;2024-03-08T01:06:45;98808.78;;;10.57;55.71
76156;BME280;64906;51.290;7.348;2024-03-08T01:09:12;98806.78;;;10.64;55.52
76156;BME280;64906;51.290;7.348;2024-03-08T01:11:37;98799.97;;;10.61;55.75
76156;BME280;64906;51.290;7.348;2024-03-08T01:14:03;98791.66;;;10.63;55.42
76156;BME280;64906;51.290;7.348;2024-03-08T01:16:28;98798.13;;;10.62;55.66
76156;BME280;64906;51.290;7.348;2024-03-08T01:18:54;98798.78;;;10.57;55.70
76156;BME280;64906;51.290;7.348;2024-03-08T01:21:19;98794.22;;;10.58;55.54
76156;BME280;64906;51.290;7.348;2024-03-08T01:23:45;98786.72;;;10.60;55.48
76156;BME280;64906;51.290;7.348;2024-03-08T01:26:10;98785.13;;;10.52;55.73
76156;BME280;64906;51.290;7.348;2024-03-08T01:28:36;98778.84;;;10.58;55.60
76156;BME280;64906;51.290;7.348;2024-03-08T01:31:01;98775.91;;;10.60;55.46
76156;BME280;64906;51.290;7.348;2024-03-08T01:33:28;98776.63;;;10.55;55.60
76156;BME280;64906;51.290;7.348;2024-03-08T01:35:55;98766.03;;;10.54;55.75
76156;BME280;64906;51.290;7.348;2024-03-08T01:38:20;98764.75;;;10.56;55.77
76156;BME280;64906;51.290;7.348;2024-03-08T01:40:51;98765.59;;;10.57;55.45
76156;BME280;64906;51.290;7.348;2024-03-08T01:43:17;98753.25;;;10.61;55.42
76156;BME280;64906;51.290;7.348;2024-03-08T01:45:42;98761.81;;;10.58;55.63
76156;BME280;64906;51.290;7.348;2024-03-08T01:48:08;98755.59;;;10.57;55.69
76156;BME280;64906;51.290;7.348;2024-03-08T01:50:33;98758.53;;;10.56;55.53
76156;BME280;64906;51.290;7.348;2024-03-08T01:52:59;98757.03;;;10.60;55.50
76156;BME280;64906;51.290;7.348;2024-03-08T01:55:25;98743.75;;;10.58;55.54
76156;BME280;64906;51.290;7.348;2024-03-08T01:57:51;98748.94;;;10.60;55.29
76156;BME280;64906;51.290;7.348;2024-03-08T02:00:17;98743.16;;;10.56;55.58
76156;BME280;64906;51.290;7.348;2024-03-08T02:02:46;98738.59;;;10.57;55.45
76156;BME280;64906;51.290;7.348;2024-03-08T02:05:12;98738.00;;;10.55;55.86
76156;BME280;64906;51.290;7.348;2024-03-08T02:07:43;98733.66;;;10.54;55.78
76156;BME280;64906;51.290;7.348;2024-03-08T02:10:12;98726.38;;;10.54;55.53
76156;BME280;64906;51.290;7.348;2024-03-08T02:12:40;98725.56;;;10.54;55.65
76156;BME280;64906;51.290;7.348;2024-03-08T02:15:06;98732.84;;;10.53;55.57
76156;BME280;64906;51.290;7.348;2024-03-08T02:17:32;98722.88;;;10.54;55.42
76156;BME280;64906;51.290;7.348;2024-03-08T02:20:00;98725.34;;;10.55;55.44
76156;BME280;64906;51.290;7.348;2024-03-08T02:22:27;98722.63;;;10.55;55.44
76156;BME280;64906;51.290;7.348;2024-03-08T02:24:54;98720.59;;;10.51;55.67
76156;BME280;64906;51.290;7.348;2024-03-08T02:27:24;98716.03;;;10.51;55.53
76156;BME280;64906;51.290;7.348;2024-03-08T02:29:52;98711.94;;;10.49;55.59
76156;BME280;64906;51.290;7.348;2024-03-08T02:32:21;98709.56;;;10.52;55.53
76156;BME280;64906;51.290;7.348;2024-03-08T02:34:46;98707.94;;;10.51;55.71
76156;BME280;64906;51.290;7.348;2024-03-08T02:37:11;98711.09;;;10.48;55.74
76156;BME280;64906;51.290;7.348;2024-03-08T02:39:37;98709.56;;;10.52;55.54
76156;BME280;64906;51.290;7.348;2024-03-08T02:42:02;98709.81;;;10.51;55.63
76156;BME280;64906;51.290;7.348;2024-03-08T02:44:28;98707.09;;;10.51;55.56
76156;BME280;64906;51.290;7.348;2024-03-08T02:46:53;98703.00;;;10.48;55.61
76156;BME280;64906;51.290;7.348;2024-03-08T02:49:20;98700.53;;;10.47;55.54
76156;BME280;64906;51.290;7.348;2024-03-08T02:51:46;98695.75;;;10.49;55.52
76156;BME280;64906;51.290;7.348;2024-03-08T02:54:11;98700.91;;;10.50;55.35
76156;BME280;64906;51.290;7.348;2024-03-08T02:56:36;98683.75;;;10.45;55.50
76156;BME280;64906;51.290;7.348;2024-03-08T02:59:01;98697.63;;;10.48;55.21
76156;BME280;64906;51.290;7.348;2024-03-08T03:01:28;98701.81;;;10.44;55.48
76156;BME280;64906;51.290;7.348;2024-03-08T03:03:53;98691.38;;;10.48;55.45
76156;BME280;64906;51.290;7.348;2024-03-08T03:06:18;98687.88;;;10.47;55.54
76156;BME280;64906;51.290;7.348;2024-03-08T03:08:46;98683.16;;;10.43;55.46
76156;BME280;64906;51.290;7.348;2024-03-08T03:11:11;98673.78;;;10.45;55.57
76156;BME280;64906;51.290;7.348;2024-03-08T03:13:38;98673.78;;;10.45;55.42
76156;BME280;64906;51.290;7.348;2024-03-08T03:16:04;98674.59;;;10.46;55.49
76156;BME280;64906;51.290;7.348;2024-03-08T03:18:29;98673.78;;;10.45;55.47
76156;BME280;64906;51.290;7.348;2024-03-08T03:20:55;98667.31;;;10.46;55.35
76156;BME280;64906;51.290;7.348;2024-03-08T03:23:20;98663.78;;;10.46;55.47
76156;BME280;64906;51.290;7.348;2024-03-08T03:25:46;98665.69;;;10.45;55.40
76156;BME280;64906;51.290;7.348;2024-03-08T03:28:11;98662.16;;;10.45;55.47
76156;BME280;64906;51.290;7.348;2024-03-08T03:30:39;98651.59;;;10.43;55.47
76156;BME280;64906;51.290;7.348;2024-03-08T03:33:05;98651.38;;;10.45;55.61
76156;BME280;64906;51.290;7.348;2024-03-08T03:35:33;98647.59;;;10.46;55.32
76156;BME280;64906;51.290;7.348;2024-03-08T03:37:59;98651.38;;;10.45;55.42
76156;BME280;64906;51.290;7.348;2024-03-08T03:40:32;98655.59;;;10.41;55.63
76156;BME280;64906;51.290;7.348;2024-03-08T03:42:58;98647.84;;;10.44;55.41
76156;BME280;64906;51.290;7.348;2024-03-08T03:45:23;98655.00;;;10.39;55.47
76156;BME280;64906;51.290;7.348;2024-03-08T03:47:49;98649.38;;;10.40;55.60
76156;BME280;64906;51.290;7.348;2024-03-08T03:50:14;98650.78;;;10.43;55.50
76156;BME280;64906;51.290;7.348;2024-03-08T03:52:40;98646.66;;;10.40;55.35
76156;BME280;64906;51.290;7.348;2024-03-08T03:55:08;98646.44;;;10.42;55.54
76156;BME280;64906;51.290;7.348;2024-03-08T03:57:33;98643.84;;;10.35;55.65
76156;BME280;64906;51.290;7.348;2024-03-08T03:59:58;98638.56;;;10.40;55.43
76156;BME280;64906;51.290;7.348;2024-03-08T04:02:24;98641.03;;;10.42;55.50
76156;BME280;64906;51.290;7.348;2024-03-08T04:04:52;98639.59;;;10.39;55.45
76156;BME280;64906;51.290;7.348;2024-03-08T04:07:17;98643.75;;;10.42;55.23
76156;BME280;64906;51.290;7.348;2024-03-08T04:09:42;98638.81;;;10.39;55.38
76156;BME280;64906;51.290;7.348;2024-03-08T04:12:08;98636.81;;;10.34;55.45
76156;BME280;64906;51.290;7.348;2024-03-08T04:14:35;98640.91;;;10.37;55.59
76156;BME280;64906;51.290;7.348;2024-03-08T04:17:00;98640.91;;;10.37;55.36
76156;BME280;64906;51.290;7.348;2024-03-08T04:19:25;98633.41;;;10.39;55.49
76156;BME280;64906;51.290;7.348;2024-03-08T04:21:53;98629.66;;;10.40;55.23
76156;BME280;64906;51.290;7.348;2024-03-08T04:24:18;98637.38;;;10.36;55.36
76156;BME280;64906;51.290;7.348;2024-03-08T04:26:43;98630.34;;;10.35;55.19
76156;BME280;64906;51.290;7.348;2024-03-08T04:29:08;98621.19;;;10.36;55.43
76156;BME280;64906;51.290;7.348;2024-03-08T04:31:34;98629.28;;;10.36;55.33
76156;BME280;64906;51.290;7.348;2024-03-08T04:33:59;98637.63;;;10.35;55.57
76156;BME280;64906;51.290;7.348;2024-03-08T04:36:24;98626.34;;;10.38;55.51
76156;BME280;64906;51.290;7.348;2024-03-08T04:38:50;98623.09;;;10.36;55.23
76156;BME280;64906;51.290;7.348;2024-03-08T04:41:16;98634.69;;;10.36;55.41
76156;BME280;64906;51.290;7.348;2024-03-08T04:43:42;98631.41;;;10.34;55.46
76156;BME280;64906;51.290;7.348;2024-03-08T04:46:07;98626.22;;;10.33;55.55
76156;BME280;64906;51.290;7.348;2024-03-08T04:48:33;98619.31;;;10.37;55.27
76156;BME280;64906;51.290;7.348;2024-03-08T04:51:02;98623.53;;;10.33;55.56
76156;BME280;64906;51.290;7.348;2024-03-08T04:53:27;98616.03;;;10.35;55.45
76156;BME280;64906;51.290;7.348;2024-03-08T04:55:52;98616.03;;;10.35;55.41
76156;BME280;64906;51.290;7.348;2024-03-08T04:58:18;98615.78;;;10.36;55.41
76156;BME280;64906;51.290;7.348;2024-03-08T05:00:43;98614.88;;;10.31;55.30
76156;BME280;64906;51.290;7.348;2024-03-08T05:03:08;98615.09;;;10.29;55.34
76156;BME280;64906;51.290;7.348;2024-03-08T05:05:34;98607.00;;;10.29;55.33
76156;BME280;64906;51.290;7.348;2024-03-08T05:07:59;98612.97;;;10.31;55.54
76156;BME280;64906;51.290;7.348;2024-03-08T05:10:26;98616.97;;;10.29;55.42
76156;BME280;64906;51.290;7.348;2024-03-08T05:12:51;98616.72;;;10.30;55.45
76156;BME280;64906;51.290;7.348;2024-03-08T05:15:17;98618.59;;;10.30;55.17
76156;BME280;64906;51.290;7.348;2024-03-08T05:17:42;98610.72;;;10.28;55.24
76156;BME280;64906;51.290;7.348;2024-03-08T05:20:08;98609.69;;;10.29;55.24
76156;BME280;64906;51.290;7.348;2024-03-08T05:22:37;98609.94;;;10.28;55.34
76156;BME280;64906;51.290;7.348;2024-03-08T05:25:02;98597.00;;;10.30;55.21
76156;BME280;64906;51.290;7.348;2024-03-08T05:27:28;98593.75;;;10.28;55.40
76156;BME280;64906;51.290;7.348;2024-03-08T05:29:53;98600.31;;;10.32;55.30
76156;BME280;64906;51.290;7.348;2024-03-08T05:32:18;98594.53;;;10.28;55.32
76156;BME280;64906;51.290;7.348;2024-03-08T05:34:44;98609.47;;;10.31;55.53
76156;BME280;64906;51.290;7.348;2024-03-08T05:37:09;98593.75;;;10.28;55.36
76156;BME280;64906;51.290;7.348;2024-03-08T05:39:35;98594.31;;;10.30;55.04
76156;BME280;64906;51.290;7.348;2024-03-08T05:42:00;98590.81;;;10.29;55.27
76156;BME280;64906;51.290;7.348;2024-03-08T05:44:26;98591.06;;;10.28;55.57
76156;BME280;64906;51.290;7.348;2024-03-08T05:46:53;98589.97;;;10.29;55.42
76156;BME280;64906;51.290;7.348;2024-03-08T05:49:19;98589.38;;;10.27;55.41
76156;BME280;64906;51.290;7.348;2024-03-08T05:51:44;98598.19;;;10.22;55.42
76156;BME280;64906;51.290;7.348;2024-03-08T05:54:11;98593.81;;;10.21;55.49
76156;BME280;64906;51.290;7.348;2024-03-08T05:56:37;98593.00;;;10.21;55.34
76156;BME280;64906;51.290;7.348;2024-03-08T05:59:03;98589.38;;;10.27;55.35
76156;BME280;64906;51.290;7.348;2024-03-08T06:01:28;98591.63;;;10.30;55.32
76156;BME280;64906;51.290;7.348;2024-03-08T06:03:55;98596.66;;;10.26;55.22
76156;BME280;64906;51.290;7.348;2024-03-08T06:06:24;98585.41;;;10.29;55.00
76156;BME280;64906;51.290;7.348;2024-03-08T06:08:50;98587.53;;;10.27;55.42
76156;BME280;64906;51.290;7.348;2024-03-08T06:11:17;98588.91;;;10.30;55.29
76156;BME280;64906;51.290;7.348;2024-03-08T06:13:46;98589.97;;;10.29;55.31
76156;BME280;64906;51.290;7.348;2024-03-08T06:16:11;98586.22;;;10.30;54.92
76156;BME280;64906;51.290;7.348;2024-03-08T06:18:37;98580.03;;;10.29;55.15
76156;BME280;64906;51.290;7.348;2024-03-08T06:21:03;98585.19;;;10.31;55.00
76156;BME280;64906;51.290;7.348;2024-03-08T06:23:33;98574.63;;;10.29;55.17
76156;BME280;64906;51.290;7.348;2024-03-08T06:25:59;98586.69;;;10.27;55.12
76156;BME280;64906;51.290;7.348;2024-03-08T06:28:24;98579.19;;;10.29;55.23
76156;BME280;64906;51.290;7.348;2024-03-08T06:30:49;98574.41;;;10.31;54.90
76156;BME280;64906;51.290;7.348;2024-03-08T06:33:16;98584.13;;;10.32;55.13
76156;BME280;64906;51.290;7.348;2024-03-08T06:35:42;98579.91;;;10.36;54.94
76156;BME280;64906;51.290;7.348;2024-03-08T06:38:07;98577.22;;;10.36;54.88
76156;BME280;64906;51.290;7.348;2024-03-08T06:40:32;98581.56;;;10.37;54.94
76156;BME280;64906;51.290;7.348;2024-03-08T06:42:58;98576.16;;;10.37;54.77
76156;BME280;64906;51.290;7.348;2024-03-08T06:45:23;98577.78;;;10.38;54.89
76156;BME280;64906;51.290;7.348;2024-03-08T06:47:49;98571.59;;;10.37;54.99
76156;BME280;64906;51.290;7.348;2024-03-08T06:50:15;98569.94;;;10.36;54.74
76156;BME280;64906;51.290;7.348;2024-03-08T06:52:41;98575.22;;;10.43;54.82
76156;BME280;64906;51.290;7.348;2024-03-08T06:55:08;98572.88;;;10.46;54.53
76156;BME280;64906;51.290;7.348;2024-03-08T06:57:38;98573.13;;;10.45;54.72
76156;BME280;64906;51.290;7.348;2024-03-08T07:00:08;98578.50;;;10.45;54.74
76156;BME280;64906;51.290;7.348;2024-03-08T07:02:35;98586.59;;;10.45;54.58
76156;BME280;64906;51.290;7.348;2024-03-08T07:05:01;98580.16;;;10.46;54.49
76156;BME280;64906;51.290;7.348;2024-03-08T07:07:26;98579.69;;;10.49;54.51
76156;BME280;64906;51.290;7.348;2024-03-08T07:09:52;98575.56;;;10.46;54.56
76156;BME280;64906;51.290;7.348;2024-03-08T07:12:17;98577.25;;;10.47;54.54
76156;BME280;64906;51.290;7.348;2024-03-08T07:14:42;98578.41;;;10.51;54.81
76156;BME280;64906;51.290;7.348;2024-03-08T07:17:10;98572.78;;;10.53;54.47
76156;BME280;64906;51.290;7.348;2024-03-08T07:19:37;98577.13;;;10.54;54.24
76156;BME280;64906;51.290;7.348;2024-03-08T07:22:03;98571.72;;;10.54;54.18
76156;BME280;64906;51.290;7.348;2024-03-08T07:24:28;98574.53;;;10.59;54.32
76156;BME280;64906;51.290;7.348;2024-03-08T07:27:16;98565.38;;;10.60;54.09
76156;BME280;64906;51.290;7.348;2024-03-08T07:29:41;98564.78;;;10.58;54.22
76156;BME280;64906;51.290;7.348;2024-03-08T07:32:06;98561.63;;;10.61;53.97
76156;BME280;64906;51.290;7.348;2024-03-08T07:34:51;98560.34;;;10.63;54.00
76156;BME280;64906;51.290;7.348;2024-03-08T07:37:19;98547.44;;;10.65;53.90
76156;BME280;64906;51.290;7.348;2024-03-08T07:39:45;98558.44;;;10.64;54.07
76156;BME280;64906;51.290;7.348;2024-03-08T07:42:11;98548.25;;;10.66;54.04
76156;BME280;64906;51.290;7.348;2024-03-08T07:44:36;98547.34;;;10.72;53.94
76156;BME280;64906;51.290;7.348;2024-03-08T07:47:02;98543.56;;;10.73;53.71
76156;BME280;64906;51.290;7.348;2024-03-08T07:49:28;98546.84;;;10.75;53.69
76156;BME280;64906;51.290;7.348;2024-03-08T07:51:55;98534.63;;;10.72;53.81
76156;BME280;64906;51.290;7.348;2024-03-08T07:54:21;98533.59;;;10.73;53.79
76156;BME280;64906;51.290;7.348;2024-03-08T07:56:46;98532.06;;;10.77;53.68
76156;BME280;64906;51.290;7.348;2024-03-08T07:59:11;98538.53;;;10.76;53.57
76156;BME280;64906;51.290;7.348;2024-03-08T08:01:37;98530.19;;;10.78;53.68
76156;BME280;64906;51.290;7.348;2024-03-08T08:04:03;98529.94;;;10.79;53.67
76156;BME280;64906;51.290;7.348;2024-03-08T08:06:28;98529.72;;;10.81;53.48
76156;BME280;64906;51.290;7.348;2024-03-08T08:08:57;98534.63;;;10.84;53.47
76156;BME280;64906;51.290;7.348;2024-03-08T08:11:22;98529.22;;;10.84;53.46
76156;BME280;64906;51.290;7.348;2024-03-08T08:13:47;98529.81;;;10.86;53.23
76156;BME280;64906;51.290;7.348;2024-03-08T08:16:13;98525.38;;;10.92;53.12
76156;BME280;64906;51.290;7.348;2024-03-08T08:18:38;98526.16;;;10.92;53.25
76156;BME280;64906;51.290;7.348;2024-03-08T08:21:05;98508.69;;;10.95;52.94
76156;BME280;64906;51.290;7.348;2024-03-08T08:23:32;98521.34;;;10.94;52.96
76156;BME280;64906;51.290;7.348;2024-03-08T08:25:57;98511.13;;;10.96;53.20
76156;BME280;64906;51.290;7.348;2024-03-08T08:28:22;98503.63;;;10.98;53.03
76156;BME280;64906;51.290;7.348;2024-03-08T08:30:48;98502.81;;;10.98;52.89
76156;BME280;64906;51.290;7.348;2024-03-08T08:33:14;98493.63;;;10.99;52.88
76156;BME280;64906;51.290;7.348;2024-03-08T08:35:40;98497.50;;;11.03;52.76
76156;BME280;64906;51.290;7.348;2024-03-08T08:38:05;98492.94;;;11.03;52.94
76156;BME280;64906;51.290;7.348;2024-03-08T08:40:33;98499.25;;;11.09;52.81
76156;BME280;64906;51.290;7.348;2024-03-08T08:42:58;98496.06;;;11.12;52.71
76156;BME280;64906;51.290;7.348;2024-03-08T08:45:25;98489.63;;;11.13;52.60
76156;BME280;64906;51.290;7.348;2024-03-08T08:47:50;98483.63;;;11.11;52.55
76156;BME280;64906;51.290;7.348;2024-03-08T08:50:15;98481.88;;;11.16;52.49
76156;BME280;64906;51.290;7.348;2024-03-08T08:52:41;98477.50;;;11.15;52.75
76156;BME280;64906;51.290;7.348;2024-03-08T08:55:09;98477.84;;;11.19;52.43
76156;BME280;64906;51.290;7.348;2024-03-08T08:57:42;98469.50;;;11.20;52.27
76156;BME280;64906;51.290;7.348;2024-03-08T09:00:08;98475.25;;;11.24;52.38
76156;BME280;64906;51.290;7.348;2024-03-08T09:02:36;98466.22;;;11.18;52.36
76156;BME280;64906;51.290;7.348;2024-03-08T09:05:02;98465.72;;;11.21;52.44
76156;BME280;64906;51.290;7.348;2024-03-08T09:07:27;98460.66;;;11.25;52.25
76156;BME280;64906;51.290;7.348;2024-03-08T09:09:53;98462.31;;;11.26;52.49
76156;BME280;64906;51.290;7.348;2024-03-08T09:12:24;98457.28;;;11.29;52.28
76156;BME280;64906;51.290;7.348;2024-03-08T09:14:49;98449.97;;;11.30;51.97
76156;BME280;64906;51.290;7.348;2024-03-08T09:17:15;98444.91;;;11.33;52.20
76156;BME280;64906;51.290;7.348;2024-03-08T09:19:43;98441.38;;;11.33;52.01
76156;BME280;64906;51.290;7.348;2024-03-08T09:22:08;98439.25;;;11.35;52.14
76156;BME280;64906;51.290;7.348;2024-03-08T09:24:33;98439.00;;;11.36;51.95
76156;BME280;64906;51.290;7.348;2024-03-08T09:26:59;98434.44;;;11.37;51.92
76156;BME280;64906;51.290;7.348;2024-03-08T09:29:24;98441.56;;;11.43;51.95
76156;BME280;64906;51.290;7.348;2024-03-08T09:31:49;98437.56;;;11.45;51.77
76156;BME280;64906;51.290;7.348;2024-03-08T09:34:15;98436.50;;;11.46;51.60
76156;BME280;64906;51.290;7.348;2024-03-08T09:36:40;98426.50;;;11.47;51.70
76156;BME280;64906;51.290;7.348;2024-03-08T09:39:06;98430.94;;;11.53;51.66
76156;BME280;64906;51.290;7.348;2024-03-08T09:41:33;98425.03;;;11.56;51.55
76156;BME280;64906;51.290;7.348;2024-03-08T09:44:00;98420.47;;;11.56;51.63
76156;BME280;64906;51.290;7.348;2024-03-08T09:46:28;98418.34;;;11.58;51.58
76156;BME280;64906;51.290;7.348;2024-03-08T09:48:54;98411.88;;;11.59;51.28
76156;BME280;64906;51.290;7.348;2024-03-08T09:51:28;98407.66;;;11.63;51.35
76156;BME280;64906;51.290;7.348;2024-03-08T09:53:53;98414.44;;;11.66;51.18
76156;BME280;64906;51.290;7.348;2024-03-08T09:56:20;98407.50;;;11.70;51.22
76156;BME280;64906;51.290;7.348;2024-03-08T09:58:46;98394.22;;;11.68;51.34
76156;BME280;64906;51.290;7.348;2024-03-08T10:01:33;98394.53;;;11.72;51.06
76156;BME280;64906;51.290;7.348;2024-03-08T10:03:58;98393.81;;;11.76;51.20
76156;BME280;64906;51.290;7.348;2024-03-08T10:06:23;98386.59;;;11.82;50.78
76156;BME280;64906;51.290;7.348;2024-03-08T10:08:50;98387.75;;;11.86;50.83
76156;BME280;64906;51.290;7.348;2024-03-08T10:11:17;98381.00;;;11.88;50.70
76156;BME280;64906;51.290;7.348;2024-03-08T10:13:44;98382.66;;;11.89;50.70
76156;BME280;64906;51.290;7.348;2024-03-08T10:16:12;98380.84;;;11.95;50.67
76156;BME280;64906;51.290;7.348;2024-03-08T10:18:37;98379.78;;;11.96;50.45
76156;BME280;64906;51.290;7.348;2024-03-08T10:21:07;98384.72;;;11.99;50.47
76156;BME280;64906;51.290;7.348;2024-03-08T10:23:35;98377.16;;;12.01;50.47
76156;BME280;64906;51.290;7.348;2024-03-08T10:26:11;98374.78;;;12.04;50.24
76156;BME280;64906;51.290;7.348;2024-03-08T10:28:47;98365.94;;;12.09;50.21
76156;BME280;64906;51.290;7.348;2024-03-08T10:31:13;98362.97;;;12.10;50.20
76156;BME280;64906;51.290;7.348;2024-03-08T10:33:40;98360.84;;;12.12;50.03
76156;BME280;64906;51.290;7.348;2024-03-08T10:36:10;98356.81;;;12.15;50.14
76156;BME280;64906;51.290;7.348;2024-03-08T10:38:40;98353.34;;;12.19;49.88
76156;BME280;64906;51.290;7.348;2024-03-08T10:41:08;98346.88;;;12.21;49.88
76156;BME280;64906;51.290;7.348;2024-03-08T10:44:10;98347.22;;;12.24;49.67
76156;BME280;64906;51.290;7.348;2024-03-08T10:47:03;98347.22;;;12.24;49.76
76156;BME280;64906;51.290;7.348;2024-03-08T10:49:50;98345.63;;;12.28;49.70
76156;BME280;64906;51.290;7.348;2024-03-08T10:52:16;98338.66;;;12.32;49.67
76156;BME280;64906;51.290;7.348;2024-03-08T10:54:43;98330.88;;;12.36;49.47
76156;BME280;64906;51.290;7.348;2024-03-08T10:57:08;98327.31;;;12.35;49.44
76156;BME280;64906;51.290;7.348;2024-03-08T10:59:35;98325.19;;;12.37;49.72
76156;BME280;64906;51.290;7.348;2024-03-08T11:02:01;98318.44;;;12.40;49.46
76156;BME280;64906;51.290;7.348;2024-03-08T11:04:26;98319.03;;;12.42;49.54
76156;BME280;64906;51.290;7.348;2024-03-08T11:07:02;98312.03;;;12.46;49.43
76156;BME280;64906;51.290;7.348;2024-03-08T11:09:32;98305.56;;;12.47;49.29
76156;BME280;64906;51.290;7.348;2024-03-08T11:15:00;98307.00;;;12.54;49.15
76156;BME280;64906;51.290;7.348;2024-03-08T11:17:39;98301.31;;;12.56;49.17
76156;BME280;64906;51.290;7.348;2024-03-08T11:20:11;98299.19;;;12.58;49.16
76156;BME280;64906;51.290;7.348;2024-03-08T11:22:53;98288.94;;;12.60;48.98
76156;BME280;64906;51.290;7.348;2024-03-08T11:25:38;98281.91;;;12.64;48.88
76156;BME280;64906;51.290;7.348;2024-03-08T11:28:12;98275.44;;;12.65;48.86
76156;BME280;64906;51.290;7.348;2024-03-08T11:33:31;98283.63;;;12.70;48.81
76156;BME280;64906;51.290;7.348;2024-03-08T11:36:11;98285.81;;;12.73;48.80
76156;BME280;64906;51.290;7.348;2024-03-08T11:38:44;98273.91;;;12.74;48.70
76156;BME280;64906;51.290;7.348;2024-03-08T11:41:10;98260.38;;;12.74;48.77
76156;BME280;64906;51.290;7.348;2024-03-08T11:43:42;98262.81;;;12.75;48.65
76156;BME280;64906;51.290;7.348;2024-03-08T11:46:08;98252.81;;;12.76;48.67
76156;BME280;64906;51.290;7.348;2024-03-08T11:48:34;98252.56;;;12.77;48.58
76156;BME280;64906;51.290;7.348;2024-03-08T11:51:01;98250.16;;;12.81;48.69
76156;BME280;64906;51.290;7.348;2024-03-08T11:53:27;98237.66;;;12.75;48.62
76156;BME280;64906;51.290;7.348;2024-03-08T11:55:52;98245.78;;;12.75;48.72
76156;BME280;64906;51.290;7.348;2024-03-08T11:58:17;98239.00;;;12.77;48.73
76156;BME280;64906;51.290;7.348;2024-03-08T12:00:43;98238.75;;;12.79;48.71
76156;BME280;64906;51.290;7.348;2024-03-08T12:03:11;98227.41;;;12.82;48.41
76156;BME280;64906;51.290;7.348;2024-03-08T12:05:37;98234.72;;;12.81;48.61
76156;BME280;64906;51.290;7.348;2024-03-08T12:08:03;98235.53;;;12.82;48.57
76156;BME280;64906;51.290;7.348;2024-03-08T12:10:32;98223.91;;;12.81;48.64
76156;BME280;64906;51.290;7.348;2024-03-08T12:12:58;98212.56;;;12.84;48.56
76156;BME280;64906;51.290;7.348;2024-03-08T12:15:29;98223.38;;;12.84;48.50
76156;BME280;64906;51.290;7.348;2024-03-08T12:17:55;98207.13;;;12.84;48.52
76156;BME280;64906;51.290;7.348;2024-03-08T12:20:25;98198.19;;;12.84;48.50
76156;BME280;64906;51.290;7.348;2024-03-08T12:22:53;98202.53;;;12.85;48.42
76156;BME280;64906;51.290;7.348;2024-03-08T12:25:19;98192.25;;;12.87;48.41
76156;BME280;64906;51.290;7.348;2024-03-08T12:27:46;98186.28;;;12.85;48.47
76156;BME280;64906;51.290;7.348;2024-03-08T12:30:24;98187.38;;;12.89;48.48
76156;BME280;64906;51.290;7.348;2024-03-08T12:32:59;98183.06;;;12.88;48.38
76156;BME280;64906;51.290;7.348;2024-03-08T12:35:29;98180.34;;;12.88;48.55
76156;BME280;64906;51.290;7.348;2024-03-08T12:37:57;98175.72;;;12.88;48.42
76156;BME280;64906;51.290;7.348;2024-03-08T12:40:27;98162.75;;;12.90;48.26
76156;BME280;64906;51.290;7.348;2024-03-08T12:42:54;98167.34;;;12.90;48.62
76156;BME280;64906;51.290;7.348;2024-03-08T12:45:20;98169.81;;;12.91;48.34
76156;BME280;64906;51.290;7.348;2024-03-08T12:47:47;98150.59;;;12.93;48.48
76156;BME280;64906;51.290;7.348;2024-03-08T12:50:13;98164.16;;;12.93;48.62
76156;BME280;64906;51.290;7.348;2024-03-08T12:52:38;98160.09;;;12.95;48.36
76156;BME280;64906;51.290;7.348;2024-03-08T12:55:04;98156.28;;;12.91;48.51
76156;BME280;64906;51.290;7.348;2024-03-08T12:57:32;98153.84;;;12.95;48.43
76156;BME280;64906;51.290;7.348;2024-03-08T12:59:59;98152.22;;;12.94;48.52
76156;BME280;64906;51.290;7.348;2024-03-08T13:02:24;98140.88;;;12.97;48.25
76156;BME280;64906;51.290;7.348;2024-03-08T13:04:51;98141.94;;;12.96;48.34